Time;durP1;ratioP1;P1;durP2;ratioP2;P2;SDS_P1;SDS_P2;PMS_P1;PMS_P2;Temp;Humidity;BMP_temperature;BMP_pressure;BME280_temperature;BME280_humidity;BME280_pressure;Samples;Min_cycle;Max_cycle;Signal;HPM_P1;HPM_P2
2022/11/15 00:00:54;;;;;;;16.80;5.78;;;;;;;;;;5008899;28;20084;-72
2022/11/15 00:03:22;;;;;;;14.88;6.07;;;;;;;;;;5011923;28;20045;-72
2022/11/15 00:05:48;;;;;;;14.27;5.57;;;;;;;;;;5025070;28;20374;-72
2022/11/15 00:08:15;;;;;;;16.02;6.35;;;;;;;;;;5045137;28;20077;-72
2022/11/15 00:10:43;;;;;;;15.02;6.30;;;;;;;;;;5036244;28;20045;-72
2022/11/15 00:13:11;;;;;;;14.40;5.80;;;;;;;;;;5026074;28;20124;-72
2022/11/15 00:15:38;;;;;;;15.48;6.15;;;;;;;;;;5044402;28;20058;-73
2022/11/15 00:18:04;;;;;;;15.45;6.07;;;;;;;;;;5041609;28;20049;-72
2022/11/15 00:20:31;;;;;;;18.67;5.68;;;;;;;;;;5043076;28;20050;-73
2022/11/15 00:22:58;;;;;;;14.90;6.05;;;;;;;;;;5018461;28;20149;-72
2022/11/15 00:25:25;;;;;;;17.50;6.68;;;;;;;;;;5048613;28;20049;-72
2022/11/15 00:27:55;;;;;;;14.13;5.85;;;;;;;;;;5018347;28;20061;-72
2022/11/15 00:30:22;;;;;;;13.80;5.78;;;;;;;;;;5059427;28;20045;-72
2022/11/15 00:32:49;;;;;;;14.35;5.93;;;;;;;;;;5016960;28;20072;-72
2022/11/15 00:35:15;;;;;;;16.25;6.47;;;;;;;;;;5057217;28;20455;-72
2022/11/15 00:37:42;;;;;;;17.15;6.25;;;;;;;;;;5021657;28;20338;-72
2022/11/15 00:40:10;;;;;;;15.88;6.32;;;;;;;;;;5056265;28;20128;-72
2022/11/15 00:42:36;;;;;;;15.35;5.80;;;;;;;;;;5037659;28;20049;-72
2022/11/15 00:45:05;;;;;;;16.63;6.38;;;;;;;;;;5028685;28;20061;-72
2022/11/15 00:47:31;;;;;;;16.88;5.72;;;;;;;;;;5034137;28;20061;-71
2022/11/15 00:49:58;;;;;;;16.40;6.10;;;;;;;;;;5044886;28;20065;-70
2022/11/15 00:52:25;;;;;;;18.55;6.38;;;;;;;;;;5050328;28;20060;-71
2022/11/15 00:54:54;;;;;;;17.45;6.13;;;;;;;;;;4985566;28;20117;-71
2022/11/15 00:57:20;;;;;;;15.02;6.32;;;;;;;;;;4981813;28;20134;-71
2022/11/15 00:59:47;;;;;;;20.73;6.13;;;;;;;;;;5045986;28;20064;-71
2022/11/15 01:02:15;;;;;;;18.02;6.30;;;;;;;;;;5021816;28;20045;-71
2022/11/15 01:04:42;;;;;;;13.98;5.63;;;;;;;;;;4996450;28;20081;-71
2022/11/15 01:07:09;;;;;;;15.45;6.25;;;;;;;;;;5032746;28;20133;-71
2022/11/15 01:09:36;;;;;;;16.80;6.13;;;;;;;;;;5027660;28;20054;-70
2022/11/15 01:12:02;;;;;;;14.18;5.60;;;;;;;;;;5017154;28;20045;-71
2022/11/15 01:14:29;;;;;;;14.50;6.05;;;;;;;;;;5027244;28;20065;-74
2022/11/15 01:16:56;;;;;;;14.25;6.43;;;;;;;;;;4975414;28;20116;-74
2022/11/15 01:19:27;;;;;;;17.40;6.60;;;;;;;;;;4944819;28;20066;-74
2022/11/15 01:27:03;;;;;;;14.02;5.47;;;;;;;;;;5030958;27;20471;-72
2022/11/15 01:29:30;;;;;;;14.30;5.72;;;;;;;;;;5025490;28;20065;-73
2022/11/15 01:31:56;;;;;;;13.25;5.70;;;;;;;;;;5012915;28;20062;-72
2022/11/15 01:34:23;;;;;;;14.40;5.88;;;;;;;;;;4999401;28;20076;-72
2022/11/15 01:36:50;;;;;;;14.63;6.20;;;;;;;;;;5006635;28;20042;-71
2022/11/15 01:39:17;;;;;;;17.73;6.90;;;;;;;;;;5000911;28;20056;-72
2022/11/15 01:41:44;;;;;;;14.70;5.82;;;;;;;;;;5028373;28;20042;-71
2022/11/15 01:44:30;;;;;;;18.60;5.70;;;;;;;;;;5011696;28;20152;-72
2022/11/15 01:46:58;;;;;;;14.43;5.45;;;;;;;;;;5020344;28;20049;-71
2022/11/15 01:49:25;;;;;;;14.82;6.15;;;;;;;;;;5012500;28;20061;-71
2022/11/15 01:51:52;;;;;;;13.45;5.65;;;;;;;;;;5009018;28;20054;-72
2022/11/15 01:54:21;;;;;;;15.23;5.80;;;;;;;;;;5010786;28;20077;-71
2022/11/15 01:56:51;;;;;;;13.52;6.13;;;;;;;;;;5018305;28;20065;-72
2022/11/15 01:59:19;;;;;;;15.80;6.13;;;;;;;;;;5011806;28;20065;-72
2022/11/15 02:01:45;;;;;;;14.45;6.03;;;;;;;;;;5008847;28;20049;-71
2022/11/15 02:04:16;;;;;;;15.00;5.97;;;;;;;;;;5012517;28;20045;-72
2022/11/15 02:06:44;;;;;;;15.07;5.63;;;;;;;;;;5002257;28;20058;-72
2022/11/15 02:09:11;;;;;;;15.02;6.18;;;;;;;;;;5010781;28;20050;-72
2022/11/15 02:11:38;;;;;;;15.63;6.05;;;;;;;;;;5010816;28;20156;-72
2022/11/15 02:14:06;;;;;;;15.77;5.97;;;;;;;;;;5005714;28;20049;-72
2022/11/15 02:16:36;;;;;;;10.83;5.30;;;;;;;;;;5001034;28;20058;-72
2022/11/15 02:19:08;;;;;;;14.50;5.88;;;;;;;;;;5010184;28;20057;-72
2022/11/15 02:21:38;;;;;;;13.23;5.18;;;;;;;;;;5009091;28;20038;-71
2022/11/15 02:24:26;;;;;;;13.43;5.20;;;;;;;;;;5011986;28;20064;-72
2022/11/15 02:27:12;;;;;;;12.40;5.07;;;;;;;;;;5003726;28;20060;-71
2022/11/15 02:29:50;;;;;;;12.45;5.30;;;;;;;;;;5011378;28;20053;-71
2022/11/15 02:32:20;;;;;;;13.23;5.57;;;;;;;;;;5008229;28;20050;-71
2022/11/15 02:34:51;;;;;;;10.60;4.85;;;;;;;;;;5003939;28;20061;-72
2022/11/15 02:37:22;;;;;;;14.15;5.75;;;;;;;;;;5016752;28;20157;-71
2022/11/15 02:39:52;;;;;;;11.85;5.35;;;;;;;;;;4997548;28;20081;-71
2022/11/15 02:45:04;;;;;;;12.10;5.68;;;;;;;;;;4976230;28;20073;-72
2022/11/15 02:47:35;;;;;;;13.43;5.07;;;;;;;;;;4996060;28;20135;-71
2022/11/15 02:50:05;;;;;;;13.80;5.00;;;;;;;;;;4998744;28;20046;-72
2022/11/15 02:52:32;;;;;;;11.63;4.80;;;;;;;;;;4986704;28;20046;-71
2022/11/15 02:54:59;;;;;;;12.60;5.93;;;;;;;;;;4995675;28;20053;-72
2022/11/15 02:57:34;;;;;;;12.02;4.88;;;;;;;;;;4994391;28;20057;-73
2022/11/15 03:00:04;;;;;;;11.65;5.00;;;;;;;;;;4997076;28;20053;-72
2022/11/15 03:02:42;;;;;;;13.60;5.53;;;;;;;;;;4982718;28;20064;-73
2022/11/15 03:05:11;;;;;;;12.55;5.70;;;;;;;;;;4978429;28;20116;-72
2022/11/15 03:07:43;;;;;;;14.50;5.55;;;;;;;;;;4987909;28;20062;-71
2022/11/15 03:10:13;;;;;;;16.02;5.32;;;;;;;;;;4996448;28;20164;-72
2022/11/15 03:12:43;;;;;;;12.88;5.47;;;;;;;;;;4990030;28;20061;-72
2022/11/15 03:15:12;;;;;;;14.90;6.03;;;;;;;;;;4993342;28;20053;-72
2022/11/15 03:17:43;;;;;;;12.10;5.10;;;;;;;;;;4996504;28;20049;-72
2022/11/15 03:20:11;;;;;;;9.98;4.85;;;;;;;;;;4993205;28;20061;-72
2022/11/15 03:22:39;;;;;;;13.27;5.75;;;;;;;;;;4989857;28;20075;-72
2022/11/15 03:25:07;;;;;;;14.50;5.17;;;;;;;;;;4992242;28;20054;-72
2022/11/15 03:27:36;;;;;;;10.27;5.18;;;;;;;;;;4996412;28;20140;-72
2022/11/15 03:30:05;;;;;;;11.80;5.15;;;;;;;;;;4992969;28;20054;-72
2022/11/15 03:32:36;;;;;;;11.95;5.32;;;;;;;;;;4992096;28;20065;-73
2022/11/15 03:35:06;;;;;;;10.85;4.70;;;;;;;;;;4984279;28;20086;-72
2022/11/15 03:37:36;;;;;;;13.68;5.18;;;;;;;;;;4997315;28;20077;-72
2022/11/15 03:40:03;;;;;;;11.10;4.97;;;;;;;;;;4997888;28;20062;-71
2022/11/15 03:42:31;;;;;;;12.52;4.88;;;;;;;;;;4995393;28;20183;-72
2022/11/15 03:45:00;;;;;;;11.35;5.00;;;;;;;;;;5007512;28;20077;-72
2022/11/15 03:47:30;;;;;;;12.63;5.30;;;;;;;;;;4998812;28;20084;-71
2022/11/15 03:49:58;;;;;;;13.38;4.85;;;;;;;;;;4991422;28;20050;-72
2022/11/15 03:52:27;;;;;;;11.95;5.25;;;;;;;;;;4997197;28;20068;-72
2022/11/15 03:54:54;;;;;;;10.82;4.90;;;;;;;;;;4990010;28;20057;-72
2022/11/15 03:57:21;;;;;;;12.33;5.37;;;;;;;;;;4999306;28;20200;-72
2022/11/15 03:59:48;;;;;;;11.90;4.68;;;;;;;;;;4993078;28;20077;-72
2022/11/15 04:02:15;;;;;;;13.10;5.88;;;;;;;;;;4995510;28;20058;-71
2022/11/15 04:04:41;;;;;;;10.52;4.82;;;;;;;;;;4989849;28;20053;-72
2022/11/15 04:07:08;;;;;;;11.20;5.55;;;;;;;;;;4993864;28;20058;-72
2022/11/15 04:10:01;;;;;;;13.93;5.40;;;;;;;;;;4996264;28;20050;-72
2022/11/15 04:12:30;;;;;;;13.48;5.55;;;;;;;;;;4983478;28;20080;-71
2022/11/15 04:15:07;;;;;;;12.35;5.20;;;;;;;;;;4996422;28;20069;-72
2022/11/15 04:17:35;;;;;;;12.95;5.25;;;;;;;;;;4958511;28;20098;-71
2022/11/15 04:25:31;;;;;;;12.27;5.68;;;;;;;;;;4994216;28;20401;-72
2022/11/15 04:27:57;;;;;;;;;;;;;;;;;;5009079;28;20077;-71
2022/11/15 04:30:24;;;;;;;8.57;4.38;;;;;;;;;;4994332;28;19940;-72
2022/11/15 04:32:51;;;;;;;11.90;4.68;;;;;;;;;;4979396;28;20057;-71
2022/11/15 04:35:17;;;;;;;16.38;5.72;;;;;;;;;;4989526;28;20049;-72
2022/11/15 04:37:44;;;;;;;13.23;5.22;;;;;;;;;;4992456;28;20054;-72
2022/11/15 04:40:11;;;;;;;13.23;5.10;;;;;;;;;;4994912;28;20091;-71
2022/11/15 04:42:41;;;;;;;12.25;5.13;;;;;;;;;;4984637;28;20049;-71
2022/11/15 04:45:10;;;;;;;10.05;4.95;;;;;;;;;;4993159;28;20070;-72
2022/11/15 04:47:36;;;;;;;13.82;5.72;;;;;;;;;;4991725;28;20054;-72
2022/11/15 04:50:03;;;;;;;12.52;5.20;;;;;;;;;;4994133;28;20132;-72
2022/11/15 04:52:30;;;;;;;10.80;5.50;;;;;;;;;;4981455;28;20148;-72
2022/11/15 04:54:56;;;;;;;11.40;5.53;;;;;;;;;;5007482;28;20057;-71
2022/11/15 04:57:23;;;;;;;12.65;5.30;;;;;;;;;;5007694;28;20130;-71
2022/11/15 04:59:51;;;;;;;10.80;5.45;;;;;;;;;;4987957;28;20088;-72
2022/11/15 05:02:18;;;;;;;11.80;4.83;;;;;;;;;;4992385;28;20054;-71
2022/11/15 05:04:43;;;;;;;13.50;6.07;;;;;;;;;;4989963;28;20065;-71
2022/11/15 05:07:10;;;;;;;12.48;5.30;;;;;;;;;;5011784;28;20334;-72
2022/11/15 05:09:36;;;;;;;12.52;5.68;;;;;;;;;;4992052;28;20062;-71
2022/11/15 05:12:03;;;;;;;12.23;4.70;;;;;;;;;;4996259;28;20065;-71
2022/11/15 05:14:30;;;;;;;12.25;5.45;;;;;;;;;;4979128;28;20057;-72
2022/11/15 05:16:58;;;;;;;12.15;5.10;;;;;;;;;;4994280;28;20053;-71
2022/11/15 05:19:24;;;;;;;11.75;5.28;;;;;;;;;;4992024;28;20149;-72
2022/11/15 05:21:51;;;;;;;16.05;5.38;;;;;;;;;;4994305;28;20056;-72
2022/11/15 05:24:18;;;;;;;11.60;5.45;;;;;;;;;;4991635;28;20169;-71
2022/11/15 05:26:44;;;;;;;11.05;4.70;;;;;;;;;;4987726;28;20351;-71
2022/11/15 05:29:12;;;;;;;13.73;5.90;;;;;;;;;;4991406;28;20076;-72
2022/11/15 05:31:40;;;;;;;12.68;5.47;;;;;;;;;;4995684;28;20054;-72
2022/11/15 05:34:08;;;;;;;11.57;5.00;;;;;;;;;;4991549;28;20054;-72
2022/11/15 05:36:36;;;;;;;9.27;4.63;;;;;;;;;;4987686;28;20050;-72
2022/11/15 05:39:04;;;;;;;13.63;4.88;;;;;;;;;;4992906;28;20057;-74
2022/11/15 05:41:33;;;;;;;11.32;5.38;;;;;;;;;;4994970;28;20081;-74
2022/11/15 05:44:01;;;;;;;11.70;4.97;;;;;;;;;;4973912;28;20054;-74
2022/11/15 05:46:29;;;;;;;14.45;5.47;;;;;;;;;;4983279;28;20053;-74
2022/11/15 05:48:56;;;;;;;11.30;4.93;;;;;;;;;;4982550;28;20065;-71
2022/11/15 05:51:25;;;;;;;12.35;5.22;;;;;;;;;;4991849;28;20309;-72
2022/11/15 05:53:51;;;;;;;;;;;;;;;;;;4985985;28;20081;-73
2022/11/15 05:56:18;;;;;;;10.98;4.90;;;;;;;;;;4992676;28;19925;-72
2022/11/15 05:58:50;;;;;;;11.70;5.35;;;;;;;;;;4987366;28;20056;-72
2022/11/15 06:01:19;;;;;;;14.40;5.32;;;;;;;;;;4973744;28;20058;-72
2022/11/15 06:03:46;;;;;;;12.57;5.40;;;;;;;;;;4956928;28;20050;-72
2022/11/15 06:06:12;;;;;;;11.73;5.05;;;;;;;;;;4987341;28;20076;-72
2022/11/15 06:08:50;;;;;;;11.90;5.40;;;;;;;;;;4983135;28;20054;-72
2022/11/15 06:11:16;;;;;;;13.40;5.40;;;;;;;;;;4982377;28;20065;-72
2022/11/15 06:13:43;;;;;;;13.80;5.80;;;;;;;;;;5014430;28;21508;-72
2022/11/15 06:16:10;;;;;;;12.23;5.68;;;;;;;;;;5005078;28;20067;-73
2022/11/15 06:18:37;;;;;;;12.30;5.50;;;;;;;;;;4991208;28;20096;-73
2022/11/15 06:21:07;;;;;;;11.50;5.22;;;;;;;;;;4995139;28;20053;-72
2022/11/15 06:23:34;;;;;;;13.77;5.57;;;;;;;;;;4997783;28;20065;-72
2022/11/15 06:26:04;;;;;;;12.27;6.07;;;;;;;;;;4994671;28;20061;-73
2022/11/15 06:28:30;;;;;;;13.18;5.78;;;;;;;;;;4992567;28;20085;-73
2022/11/15 06:31:02;;;;;;;11.70;5.25;;;;;;;;;;4996532;28;20062;-72
2022/11/15 06:33:29;;;;;;;10.90;5.32;;;;;;;;;;4998540;28;20054;-72
2022/11/15 06:35:55;;;;;;;11.93;5.30;;;;;;;;;;4977717;28;20061;-73
2022/11/15 06:38:24;;;;;;;10.40;5.28;;;;;;;;;;4996554;28;20074;-73
2022/11/15 06:40:55;;;;;;;12.93;5.30;;;;;;;;;;4979973;28;21136;-73
2022/11/15 06:43:23;;;;;;;14.48;5.30;;;;;;;;;;4984949;28;20292;-72
2022/11/15 06:45:51;;;;;;;13.55;5.85;;;;;;;;;;4967969;28;20054;-72
2022/11/15 06:48:18;;;;;;;;;;;;;;;;;;4912311;28;20102;-72
2022/11/15 06:56:00;;;;;;;12.73;5.75;;;;;;;;;;5019179;27;20851;-73
2022/11/15 06:58:27;;;;;;;14.65;6.10;;;;;;;;;;4963616;28;20053;-74
2022/11/15 07:00:55;;;;;;;11.55;5.43;;;;;;;;;;4995777;28;20437;-73
2022/11/15 07:03:21;;;;;;;10.68;4.82;;;;;;;;;;4961548;28;20619;-73
2022/11/15 07:05:53;;;;;;;16.60;5.38;;;;;;;;;;4943268;28;20077;-74
2022/11/15 07:08:20;;;;;;;15.63;5.75;;;;;;;;;;4919540;28;20057;-73
2022/11/15 07:20:48;;;;;;;10.95;5.05;;;;;;;;;;5001643;27;20479;-74
2022/11/15 07:23:15;;;;;;;11.27;5.28;;;;;;;;;;4975581;28;20144;-75
2022/11/15 07:25:43;;;;;;;12.40;5.70;;;;;;;;;;4892563;28;20059;-72
2022/11/15 07:28:09;;;;;;;11.68;5.32;;;;;;;;;;4930211;28;20142;-72
2022/11/15 07:30:38;;;;;;;11.57;5.05;;;;;;;;;;4901767;28;20055;-72
2022/11/15 07:33:06;;;;;;;10.30;4.72;;;;;;;;;;4921017;28;20058;-73
2022/11/15 07:35:33;;;;;;;9.57;4.88;;;;;;;;;;4909467;29;20106;-74
2022/11/15 07:43:12;;;;;;;11.20;4.78;;;;;;;;;;5064868;27;20730;-74
2022/11/15 07:45:41;;;;;;;12.32;5.40;;;;;;;;;;5023183;28;20132;-74
2022/11/15 07:48:09;;;;;;;13.80;5.03;;;;;;;;;;5003912;28;20077;-75
2022/11/15 07:50:36;;;;;;;12.05;4.78;;;;;;;;;;4948959;28;20051;-75
2022/11/15 07:58:13;;;;;;;12.30;5.07;;;;;;;;;;5008737;27;20434;-74
2022/11/15 08:00:40;;;;;;;10.68;4.88;;;;;;;;;;5013979;28;20150;-73
2022/11/15 08:03:10;;;;;;;10.85;4.95;;;;;;;;;;4998279;28;20060;-74
2022/11/15 08:13:06;;;;;;;10.25;4.72;;;;;;;;;;5008571;27;20161;-75
2022/11/15 08:15:34;;;;;;;9.82;4.85;;;;;;;;;;4967343;28;20131;-74
2022/11/15 08:18:03;;;;;;;11.35;5.05;;;;;;;;;;4944466;28;20059;-74
2022/11/15 08:25:46;;;;;;;9.43;4.85;;;;;;;;;;4977801;27;20459;-72
2022/11/15 08:28:17;;;;;;;10.82;4.85;;;;;;;;;;4905630;28;20058;-72
2022/11/15 08:38:28;;;;;;;12.52;5.38;;;;;;;;;;4973606;27;20440;-75
2022/11/15 08:41:01;;;;;;;12.20;5.55;;;;;;;;;;4919160;28;20066;-74
2022/11/15 08:48:46;;;;;;;11.60;5.15;;;;;;;;;;5044058;27;20126;-74
2022/11/15 08:51:13;;;;;;;11.63;5.03;;;;;;;;;;4928470;28;20054;-74
2022/11/15 08:58:54;;;;;;;12.00;5.45;;;;;;;;;;5048423;27;20426;-72
2022/11/15 09:01:21;;;;;;;13.05;5.90;;;;;;;;;;5004854;28;20113;-75
2022/11/15 09:03:50;;;;;;;11.15;5.55;;;;;;;;;;4933050;28;20058;-74
2022/11/15 09:11:32;;;;;;;11.48;5.13;;;;;;;;;;5039704;27;20472;-74
2022/11/15 09:14:02;;;;;;;11.27;5.30;;;;;;;;;;4903117;28;20056;-74
2022/11/15 09:16:33;;;;;;;9.90;5.32;;;;;;;;;;4868010;29;20103;-75
2022/11/15 09:24:25;;;;;;;9.20;4.68;;;;;;;;;;5053183;27;20444;-74
2022/11/15 09:32:05;;;;;;;11.05;4.78;;;;;;;;;;5034596;27;20534;-72
2022/11/15 09:34:32;;;;;;;10.63;4.68;;;;;;;;;;4932822;28;20051;-75
2022/11/15 09:42:25;;;;;;;11.80;4.95;;;;;;;;;;4973201;28;20461;-74
2022/11/15 09:44:58;;;;;;;10.88;5.03;;;;;;;;;;4894410;28;20199;-73
2022/11/15 09:52:35;;;;;;;8.73;4.60;;;;;;;;;;4951421;27;21074;-74
2022/11/15 09:55:01;;;;;;;9.80;3.95;;;;;;;;;;4907490;28;20044;-73
2022/11/15 09:57:32;;;;;;;10.02;4.18;;;;;;;;;;4935491;28;20054;-73
2022/11/15 10:00:10;;;;;;;8.40;4.47;;;;;;;;;;4909448;28;20051;-73
2022/11/15 10:07:49;;;;;;;9.43;3.93;;;;;;;;;;4958507;27;1537010;-72
2022/11/15 10:10:20;;;;;;;9.07;4.05;;;;;;;;;;4933616;28;20313;-72
2022/11/15 10:12:48;;;;;;;9.13;4.00;;;;;;;;;;4927027;28;20058;-72
2022/11/15 10:15:25;;;;;;;10.15;4.97;;;;;;;;;;4936859;28;20053;-72
2022/11/15 10:23:01;;;;;;;10.15;4.10;;;;;;;;;;5029704;27;20409;-72
2022/11/15 10:25:29;;;;;;;9.95;4.20;;;;;;;;;;4991184;28;20058;-72
2022/11/15 10:27:58;;;;;;;7.72;3.33;;;;;;;;;;4976857;28;20080;-72
2022/11/15 10:30:31;;;;;;;8.45;3.53;;;;;;;;;;5001027;28;20045;-73
2022/11/15 10:33:10;;;;;;;8.73;3.63;;;;;;;;;;4992501;28;20073;-73
2022/11/15 10:35:39;;;;;;;11.15;4.15;;;;;;;;;;4975940;28;20410;-73
2022/11/15 10:38:09;;;;;;;10.02;4.13;;;;;;;;;;4948882;28;20162;-73
2022/11/15 10:45:50;;;;;;;7.90;3.38;;;;;;;;;;5021006;27;20133;-72
2022/11/15 10:48:36;;;;;;;6.40;2.88;;;;;;;;;;4955366;28;20066;-72
2022/11/15 10:56:15;;;;;;;6.53;2.95;;;;;;;;;;5099478;27;20448;-72
2022/11/15 10:58:46;;;;;;;9.40;3.20;;;;;;;;;;4958759;28;20077;-73
2022/11/15 11:06:30;;;;;;;6.30;2.72;;;;;;;;;;5061757;27;20417;-74
2022/11/15 11:08:59;;;;;;;5.68;2.42;;;;;;;;;;4901369;29;20060;-74
2022/11/15 11:16:41;;;;;;;6.55;2.78;;;;;;;;;;5053759;27;20446;-74
2022/11/15 11:19:17;;;;;;;5.70;2.60;;;;;;;;;;4979333;28;20057;-73
2022/11/15 11:29:22;;;;;;;4.88;2.47;;;;;;;;;;5098321;27;20555;-71
2022/11/15 11:31:52;;;;;;;6.97;2.53;;;;;;;;;;5045218;28;20052;-73
2022/11/15 11:34:28;;;;;;;7.25;2.42;;;;;;;;;;4976614;28;20116;-72
2022/11/15 11:37:00;;;;;;;6.22;2.55;;;;;;;;;;4944940;28;20604;-74
2022/11/15 11:45:00;;;;;;;5.90;1.80;;;;;;;;;;4865192;28;20042;-73
2022/11/15 11:47:33;;;;;;;3.53;1.67;;;;;;;;;;4959273;28;20092;-73
2022/11/15 11:50:01;;;;;;;4.45;2.10;;;;;;;;;;4953683;28;20104;-73
2022/11/15 11:52:42;;;;;;;9.98;2.08;;;;;;;;;;4944167;28;20050;-73
2022/11/15 11:57:38;;;;;;;3.88;1.77;;;;;;;;;;4916131;28;20153;-72
2022/11/15 12:00:16;;;;;;;5.32;1.77;;;;;;;;;;4963994;28;20119;-71
2022/11/15 12:02:43;;;;;;;;;;;;;;;;;;5014988;28;20346;-72
2022/11/15 12:10:27;;;;;;;5.32;1.50;;;;;;;;;;5098380;27;20392;-71
2022/11/15 12:12:58;;;;;;;7.25;1.92;;;;;;;;;;5043413;28;20403;-71
2022/11/15 12:15:26;;;;;;;4.13;1.67;;;;;;;;;;5028605;28;20088;-71
2022/11/15 12:17:55;;;;;;;4.10;1.73;;;;;;;;;;5070225;28;20061;-71
2022/11/15 12:20:25;;;;;;;4.65;1.45;;;;;;;;;;5033561;28;20139;-71
2022/11/15 12:22:55;;;;;;;4.50;1.67;;;;;;;;;;5043984;28;20082;-71
2022/11/15 12:25:24;;;;;;;4.22;1.83;;;;;;;;;;5056984;28;20059;-72
2022/11/15 12:27:55;;;;;;;5.40;1.65;;;;;;;;;;5058595;28;20053;-71
2022/11/15 12:30:25;;;;;;;3.72;1.67;;;;;;;;;;5055307;28;20049;-71
2022/11/15 12:32:54;;;;;;;4.22;1.48;;;;;;;;;;5051540;28;20060;-71
2022/11/15 12:35:24;;;;;;;3.47;1.25;;;;;;;;;;5061504;28;20075;-71
2022/11/15 12:37:51;;;;;;;3.78;1.40;;;;;;;;;;5061186;28;20044;-71
2022/11/15 12:40:20;;;;;;;4.68;1.70;;;;;;;;;;5040701;28;20048;-72
2022/11/15 12:42:46;;;;;;;;;;;;;;;;;;5051747;28;20087;-71
2022/11/15 12:45:30;;;;;;;2.03;1.13;;;;;;;;;;5030905;28;19936;-72
2022/11/15 12:48:18;;;;;;;4.13;1.20;;;;;;;;;;5034780;28;20136;-71
2022/11/15 12:50:57;;;;;;;3.58;1.50;;;;;;;;;;5050036;28;20064;-71
2022/11/15 12:53:28;;;;;;;3.97;1.55;;;;;;;;;;5043510;28;20242;-71
2022/11/15 12:56:12;;;;;;;3.90;1.50;;;;;;;;;;5059335;28;20052;-71
2022/11/15 12:58:43;;;;;;;9.40;1.30;;;;;;;;;;5058962;28;20049;-71
2022/11/15 13:01:14;;;;;;;2.38;1.17;;;;;;;;;;5046975;28;20056;-72
2022/11/15 13:04:00;;;;;;;4.63;1.15;;;;;;;;;;5052668;28;20075;-72
2022/11/15 13:06:41;;;;;;;2.95;1.30;;;;;;;;;;5029817;28;20052;-72
2022/11/15 13:09:24;;;;;;;2.63;1.13;;;;;;;;;;4995783;28;20077;-72
2022/11/15 13:11:53;;;;;;;3.78;1.27;;;;;;;;;;5042198;28;20050;-72
2022/11/15 13:14:39;;;;;;;2.42;1.02;;;;;;;;;;5006531;28;20057;-72
2022/11/15 13:25:12;;;;;;;3.13;1.00;;;;;;;;;;5007776;27;20425;-72
2022/11/15 13:27:57;;;;;;;1.90;1.25;;;;;;;;;;4946330;28;20053;-72
2022/11/15 13:35:48;;;;;;;1.95;1.00;;;;;;;;;;4867276;27;3411683;-72
2022/11/15 13:38:19;;;;;;;3.95;0.80;;;;;;;;;;4933083;28;20171;-71
2022/11/15 13:40:47;;;;;;;2.25;1.00;;;;;;;;;;4906458;28;20057;-71
2022/11/15 13:48:28;;;;;;;2.35;1.00;;;;;;;;;;5009618;27;20482;-72
2022/11/15 13:50:56;;;;;;;3.50;1.30;;;;;;;;;;4991684;28;20050;-71
2022/11/15 13:53:22;;;;;;;6.13;1.17;;;;;;;;;;4964233;28;20050;-72
2022/11/15 13:55:50;;;;;;;3.28;0.80;;;;;;;;;;4961934;28;20059;-72
2022/11/15 13:58:20;;;;;;;2.13;1.02;;;;;;;;;;4922451;28;20171;-72
2022/11/15 14:09:36;;;;;;;2.35;1.00;;;;;;;;;;5032144;27;20383;-72
2022/11/15 14:33:35;;;;;;;1.70;0.82;;;;;;;;;;4966855;27;20548;-71
2022/11/15 14:36:19;;;;;;;;;;;;;;;;;;;;;
2022/11/15 14:38:54;;;;;;;1.63;0.88;;;;;;;;;;4887400;28;20304;-71
2022/11/15 14:41:23;;;;;;;2.85;0.85;;;;;;;;;;4897193;28;20055;-72
2022/11/15 14:49:09;;;;;;;3.63;0.90;;;;;;;;;;4989617;27;20452;-70
2022/11/15 14:51:41;;;;;;;3.80;0.85;;;;;;;;;;4912055;28;20047;-70
2022/11/15 15:02:13;;;;;;;3.45;0.90;;;;;;;;;;4975312;27;1411680;-74
2022/11/15 15:04:44;;;;;;;4.00;0.90;;;;;;;;;;4916731;28;20055;-71
2022/11/15 15:07:10;;;;;;;;;;;;;;;;;;4922538;28;20050;-70
2022/11/15 15:09:37;;;;;;;2.35;0.90;;;;;;;;;;4939422;28;19925;-70
2022/11/15 15:12:06;;;;;;;3.75;0.70;;;;;;;;;;4887534;28;20054;-70
2022/11/15 15:14:36;;;;;;;3.10;0.90;;;;;;;;;;4881470;28;20044;-70
2022/11/15 15:17:03;;;;;;;3.63;0.95;;;;;;;;;;4932265;28;20089;-71
2022/11/15 15:19:31;;;;;;;1.38;0.70;;;;;;;;;;4943735;28;20121;-71
2022/11/15 15:22:00;;;;;;;1.60;0.70;;;;;;;;;;4965323;28;20055;-70
2022/11/15 15:24:27;;;;;;;;;;;;;;;;;;4966032;28;20042;-71
2022/11/15 15:26:54;;;;;;;3.13;0.80;;;;;;;;;;4965149;28;21297;-70
2022/11/15 15:29:30;;;;;;;1.75;0.82;;;;;;;;;;4985870;28;20057;-71
2022/11/15 15:32:01;;;;;;;4.10;0.80;;;;;;;;;;4990078;28;20072;-72
2022/11/15 15:34:28;;;;;;;2.53;0.98;;;;;;;;;;4996078;28;20049;-72
2022/11/15 15:37:09;;;;;;;1.02;0.75;;;;;;;;;;4970918;28;20049;-72
2022/11/15 15:39:36;;;;;;;1.90;0.88;;;;;;;;;;4974529;28;20068;-72
2022/11/15 15:42:03;;;;;;;2.05;0.82;;;;;;;;;;4990108;28;20050;-71
2022/11/15 15:44:30;;;;;;;3.87;1.10;;;;;;;;;;4990993;28;20061;-72
2022/11/15 15:46:59;;;;;;;1.73;0.98;;;;;;;;;;4981916;28;20057;-72
2022/11/15 15:49:25;;;;;;;1.52;0.90;;;;;;;;;;4975914;28;20050;-71
2022/11/15 15:51:52;;;;;;;1.70;0.93;;;;;;;;;;4992263;28;20072;-71
2022/11/15 15:54:20;;;;;;;4.28;1.15;;;;;;;;;;4977031;28;20067;-71
2022/11/15 15:56:47;;;;;;;2.45;0.77;;;;;;;;;;4989946;28;20073;-71
2022/11/15 15:59:13;;;;;;;1.67;0.90;;;;;;;;;;5006829;28;20113;-71
2022/11/15 16:01:40;;;;;;;1.63;0.75;;;;;;;;;;4975833;28;20062;-71
2022/11/15 16:04:07;;;;;;;3.78;0.80;;;;;;;;;;4969440;28;20148;-71
2022/11/15 16:06:36;;;;;;;3.63;1.00;;;;;;;;;;4979331;28;20050;-71
2022/11/15 16:09:13;;;;;;;3.40;1.00;;;;;;;;;;4975309;28;20065;-71
2022/11/15 16:11:41;;;;;;;2.55;0.90;;;;;;;;;;4956078;28;20132;-71
2022/11/15 16:14:08;;;;;;;5.05;1.00;;;;;;;;;;4980794;28;20054;-71
2022/11/15 16:16:35;;;;;;;2.75;1.13;;;;;;;;;;4950526;28;20080;-71
2022/11/15 16:19:02;;;;;;;3.15;0.90;;;;;;;;;;4976550;28;20153;-71
2022/11/15 16:21:29;;;;;;;3.40;0.95;;;;;;;;;;4985531;28;20050;-71
2022/11/15 16:23:56;;;;;;;2.88;1.02;;;;;;;;;;4979762;28;20149;-71
2022/11/15 16:26:24;;;;;;;1.63;0.75;;;;;;;;;;4978472;28;20042;-70
2022/11/15 16:28:53;;;;;;;5.07;0.88;;;;;;;;;;4982545;28;20058;-71
2022/11/15 16:31:22;;;;;;;;;;;;;;;;;;4989491;28;20054;-71
2022/11/15 16:33:48;;;;;;;2.72;1.02;;;;;;;;;;4993473;28;19926;-71
2022/11/15 16:36:20;;;;;;;3.00;0.93;;;;;;;;;;4978082;28;20061;-71
2022/11/15 16:38:47;;;;;;;3.80;1.00;;;;;;;;;;4968738;28;20057;-71
2022/11/15 16:41:14;;;;;;;4.28;1.10;;;;;;;;;;4964340;28;20046;-71
2022/11/15 16:43:40;;;;;;;4.13;0.95;;;;;;;;;;4967519;28;20054;-71
2022/11/15 16:46:13;;;;;;;4.47;1.17;;;;;;;;;;4957371;28;20050;-72
2022/11/15 16:48:40;;;;;;;4.28;1.10;;;;;;;;;;4960037;28;20050;-71
2022/11/15 16:51:08;;;;;;;2.65;1.10;;;;;;;;;;4983957;28;20133;-72
2022/11/15 16:53:34;;;;;;;1.77;1.00;;;;;;;;;;4961534;28;20061;-71
2022/11/15 16:56:01;;;;;;;3.00;1.30;;;;;;;;;;4949804;28;20061;-71
2022/11/15 16:58:28;;;;;;;3.58;1.10;;;;;;;;;;4975439;28;20054;-71
2022/11/15 17:01:04;;;;;;;3.10;1.20;;;;;;;;;;4987208;28;20104;-71
2022/11/15 17:03:35;;;;;;;1.80;1.10;;;;;;;;;;4966150;28;20062;-72
2022/11/15 17:06:01;;;;;;;1.85;0.98;;;;;;;;;;4977973;28;20161;-72
2022/11/15 17:08:28;;;;;;;3.10;1.17;;;;;;;;;;4964759;28;20056;-72
2022/11/15 17:10:55;;;;;;;2.58;0.90;;;;;;;;;;4947437;28;20054;-71
2022/11/15 17:13:22;;;;;;;1.95;1.00;;;;;;;;;;4946397;28;20055;-71
2022/11/15 17:15:48;;;;;;;6.38;1.23;;;;;;;;;;4949394;28;20054;-72
2022/11/15 17:18:15;;;;;;;4.82;1.10;;;;;;;;;;4953451;28;20067;-72
2022/11/15 17:20:43;;;;;;;2.33;1.15;;;;;;;;;;4955097;28;20144;-72
2022/11/15 17:23:13;;;;;;;3.90;1.23;;;;;;;;;;4947374;28;20062;-71
2022/11/15 17:25:40;;;;;;;3.55;1.60;;;;;;;;;;4947984;28;20055;-71
2022/11/15 17:28:06;;;;;;;2.40;1.08;;;;;;;;;;4948449;28;20078;-72
2022/11/15 17:30:34;;;;;;;3.88;1.27;;;;;;;;;;4946250;28;20069;-72
2022/11/15 17:33:01;;;;;;;4.18;1.23;;;;;;;;;;4942084;28;20089;-72
2022/11/15 17:35:27;;;;;;;4.75;1.15;;;;;;;;;;4953192;28;20054;-72
2022/11/15 17:37:56;;;;;;;2.08;1.13;;;;;;;;;;4975135;28;20042;-72
2022/11/15 17:40:25;;;;;;;3.55;1.65;;;;;;;;;;4980635;28;20054;-72
2022/11/15 17:42:52;;;;;;;2.45;1.20;;;;;;;;;;4946333;28;20223;-72
2022/11/15 17:45:18;;;;;;;4.72;1.40;;;;;;;;;;4977901;28;20202;-72
2022/11/15 17:47:45;;;;;;;4.28;1.50;;;;;;;;;;4977084;28;20070;-72
2022/11/15 17:50:12;;;;;;;5.22;1.35;;;;;;;;;;4953819;28;20146;-72
2022/11/15 17:52:39;;;;;;;5.72;1.83;;;;;;;;;;4944869;28;20054;-72
2022/11/15 17:55:08;;;;;;;4.50;1.27;;;;;;;;;;4937289;28;20055;-72
2022/11/15 17:57:34;;;;;;;4.65;1.45;;;;;;;;;;4979165;28;20072;-72
2022/11/15 18:00:01;;;;;;;8.35;1.58;;;;;;;;;;4992485;28;20065;-72
2022/11/15 18:02:29;;;;;;;3.28;1.52;;;;;;;;;;4980972;28;20141;-74
2022/11/15 18:04:55;;;;;;;3.27;1.33;;;;;;;;;;4981080;28;20898;-72
2022/11/15 18:07:24;;;;;;;3.40;1.52;;;;;;;;;;4992989;28;20061;-72
2022/11/15 18:09:55;;;;;;;3.55;1.30;;;;;;;;;;4971875;28;20057;-72
2022/11/15 18:12:24;;;;;;;5.60;1.63;;;;;;;;;;5009324;28;20052;-72
2022/11/15 18:14:51;;;;;;;3.03;1.38;;;;;;;;;;4953026;28;20058;-72
2022/11/15 18:17:18;;;;;;;5.43;1.50;;;;;;;;;;4969679;28;20104;-72
2022/11/15 18:19:44;;;;;;;4.55;1.48;;;;;;;;;;4983479;28;20058;-71